createdAt,value
2022-11-18T00:00:07.448Z,21.15
2022-11-18T00:02:36.016Z,18.90
2022-11-18T00:05:04.664Z,18.83
2022-11-18T00:07:34.534Z,18.63
2022-11-18T00:10:02.984Z,17.63
2022-11-18T00:12:48.468Z,16.95
2022-11-18T00:15:16.930Z,16.88
2022-11-18T00:17:45.296Z,17.50
2022-11-18T00:20:13.581Z,15.82
2022-11-18T00:22:43.339Z,17.20
2022-11-18T00:25:11.674Z,16.80
2022-11-18T00:27:40.148Z,16.92
2022-11-18T00:30:10.063Z,16.63
2022-11-18T00:32:38.315Z,17.88
2022-11-18T00:35:07.637Z,18.20
2022-11-18T00:37:36.009Z,17.95
2022-11-18T00:40:06.559Z,16.67
2022-11-18T00:43:26.258Z,17.13
2022-11-18T00:45:54.704Z,16.95
2022-11-18T00:48:23.275Z,16.95
2022-11-18T00:55:20.977Z,15.65
2022-11-18T00:57:49.275Z,17.02
2022-11-18T01:00:18.027Z,17.23
2022-11-18T01:02:46.406Z,17.73
2022-11-18T01:05:14.822Z,16.92
2022-11-18T01:07:43.284Z,16.67
2022-11-18T01:10:13.182Z,16.52
2022-11-18T01:12:58.866Z,17.27
2022-11-18T01:15:27.295Z,17.55
2022-11-18T01:17:55.656Z,16.40
2022-11-18T01:20:24.215Z,18.88
2022-11-18T01:22:52.586Z,18.33
2022-11-18T01:25:22.881Z,17.05
2022-11-18T01:27:51.343Z,18.30
2022-11-18T01:30:19.707Z,18.63
2022-11-18T01:32:48.122Z,17.20
2022-11-18T01:35:16.738Z,17.10
2022-11-18T01:37:45.139Z,16.63
2022-11-18T01:40:13.972Z,16.58
2022-11-18T01:42:43.712Z,16.45
2022-11-18T01:45:27.668Z,17.13
2022-11-18T01:48:03.885Z,17.45
2022-11-18T01:50:34.315Z,16.15
2022-11-18T01:53:11.011Z,15.68
2022-11-18T01:55:42.704Z,16.35
2022-11-18T01:58:17.047Z,14.93
2022-11-18T02:00:45.568Z,15.52
2022-11-18T02:03:15.318Z,16.98
2022-11-18T02:05:44.918Z,15.60
2022-11-18T02:08:13.608Z,14.25
2022-11-18T02:10:42.113Z,15.50
2022-11-18T02:13:13.198Z,16.33
2022-11-18T02:15:50.173Z,14.40
2022-11-18T02:18:29.011Z,13.95
2022-11-18T02:21:03.598Z,14.73
2022-11-18T02:23:59.445Z,16.17
2022-11-18T02:27:22.242Z,14.32
2022-11-18T02:29:57.489Z,13.35
2022-11-18T02:32:31.159Z,13.13
2022-11-18T02:35:07.438Z,13.25
2022-11-18T02:37:42.683Z,13.93
2022-11-18T02:40:17.692Z,14.13
2022-11-18T02:42:51.769Z,13.43
2022-11-18T02:45:24.018Z,12.88
2022-11-18T02:47:54.277Z,14.15
2022-11-18T02:50:26.899Z,15.57
2022-11-18T02:52:58.527Z,14.88
2022-11-18T02:55:29.922Z,14.40
2022-11-18T02:58:00.667Z,14.45
2022-11-18T03:00:31.579Z,16.13
2022-11-18T03:03:00.462Z,17.15
2022-11-18T03:05:45.749Z,16.98
2022-11-18T03:08:19.737Z,17.52
2022-11-18T03:10:54.068Z,16.88
2022-11-18T03:13:31.438Z,14.57
2022-11-18T03:16:19.977Z,14.27
2022-11-18T03:18:54.305Z,12.50
2022-11-18T03:21:28.036Z,11.73
2022-11-18T03:24:01.705Z,11.65
2022-11-18T03:26:34.959Z,11.63
2022-11-18T03:29:07.805Z,11.35
2022-11-18T03:31:50.404Z,10.73
2022-11-18T03:34:26.358Z,11.13
2022-11-18T03:37:09.028Z,11.02
2022-11-18T03:39:43.086Z,9.43
2022-11-18T03:42:14.585Z,11.38
2022-11-18T03:44:52.409Z,11.57
2022-11-18T03:47:31.462Z,11.20
2022-11-18T03:50:05.481Z,10.70
2022-11-18T03:52:38.020Z,12.00
2022-11-18T03:55:13.857Z,12.05
2022-11-18T03:57:51.106Z,12.30
2022-11-18T04:00:20.526Z,11.90
2022-11-18T04:02:51.767Z,12.27
2022-11-18T04:05:21.042Z,12.95
2022-11-18T04:08:06.972Z,12.15
2022-11-18T04:10:40.017Z,12.07
2022-11-18T04:13:11.620Z,11.50
2022-11-18T04:15:42.956Z,12.93
2022-11-18T04:18:13.241Z,12.32
2022-11-18T04:20:41.945Z,14.30
2022-11-18T04:23:11.019Z,13.43
2022-11-18T04:25:42.796Z,13.73
2022-11-18T04:28:12.598Z,13.80
2022-11-18T04:30:41.269Z,13.93
2022-11-18T04:33:09.803Z,13.82
2022-11-18T04:36:08.369Z,9.68
2022-11-18T04:38:53.053Z,10.10
2022-11-18T04:41:49.441Z,10.65
2022-11-18T04:44:18.072Z,9.90
2022-11-18T04:46:50.060Z,9.90
2022-11-18T04:49:19.271Z,9.85
2022-11-18T04:51:48.522Z,9.35
2022-11-18T04:54:19.328Z,10.45
2022-11-18T04:56:49.995Z,9.85
2022-11-18T04:59:20.957Z,9.48
2022-11-18T05:01:50.326Z,8.75
2022-11-18T05:04:20.764Z,8.77
2022-11-18T05:06:49.744Z,9.20
2022-11-18T05:09:20.871Z,10.48
2022-11-18T05:12:07.565Z,9.48
2022-11-18T05:14:36.244Z,9.70
2022-11-18T05:17:09.797Z,10.27
2022-11-18T05:19:40.524Z,10.75
2022-11-18T05:22:09.380Z,10.55
2022-11-18T05:24:39.432Z,10.25
2022-11-18T05:27:09.105Z,9.90
2022-11-18T05:29:37.562Z,9.25
2022-11-18T05:32:06.682Z,11.32
2022-11-18T05:34:35.100Z,8.82
2022-11-18T05:37:03.582Z,10.23
2022-11-18T05:39:32.981Z,10.43
2022-11-18T05:42:39.413Z,10.75
2022-11-18T05:45:08.660Z,10.88
2022-11-18T05:47:57.339Z,9.27
2022-11-18T05:50:25.918Z,9.57
2022-11-18T05:52:54.583Z,9.73
2022-11-18T05:55:25.752Z,11.40
2022-11-18T05:57:55.661Z,9.27
2022-11-18T06:00:24.484Z,10.90
2022-11-18T06:02:56.021Z,9.98
2022-11-18T06:05:25.861Z,10.23
2022-11-18T06:07:57.234Z,9.93
2022-11-18T06:10:30.989Z,9.45
2022-11-18T06:13:04.343Z,9.00
2022-11-18T06:15:35.224Z,9.88
2022-11-18T06:18:08.049Z,11.07
2022-11-18T06:20:39.849Z,10.13
2022-11-18T06:23:08.815Z,11.25
2022-11-18T06:25:39.681Z,10.65
2022-11-18T06:28:25.402Z,10.35
2022-11-18T06:30:53.935Z,10.15
2022-11-18T06:33:22.653Z,10.57
2022-11-18T06:35:51.242Z,9.52
2022-11-18T06:38:19.640Z,10.45
2022-11-18T06:40:48.301Z,11.15
2022-11-18T06:46:36.777Z,10.30
2022-11-18T06:49:05.539Z,9.95
2022-11-18T06:51:34.016Z,9.40
2022-11-18T06:54:07.461Z,9.35
2022-11-18T06:56:39.053Z,9.27
2022-11-18T06:59:08.048Z,8.93
2022-11-18T07:01:41.489Z,9.13
2022-11-18T07:04:39.758Z,9.15
2022-11-18T07:07:08.717Z,8.77
2022-11-18T07:09:37.669Z,9.05
2022-11-18T07:12:06.687Z,8.70
2022-11-18T07:14:35.364Z,9.27
2022-11-18T07:17:20.560Z,8.95
2022-11-18T07:19:49.046Z,9.20
2022-11-18T07:22:20.643Z,8.43
2022-11-18T07:24:49.431Z,8.63
2022-11-18T07:27:17.796Z,8.82
2022-11-18T07:29:46.310Z,8.63
2022-11-18T07:32:18.881Z,9.25
2022-11-18T07:34:48.716Z,9.23
2022-11-18T07:37:17.215Z,8.98
2022-11-18T07:39:45.703Z,8.40
2022-11-18T07:42:14.189Z,9.75
2022-11-18T07:44:43.223Z,9.98
2022-11-18T07:47:11.664Z,8.98
2022-11-18T07:49:40.394Z,9.30
2022-11-18T07:52:12.568Z,10.13
2022-11-18T07:54:41.224Z,10.43
2022-11-18T07:57:10.120Z,10.40
2022-11-18T07:59:38.561Z,9.77
2022-11-18T08:02:08.394Z,11.13
2022-11-18T08:04:40.001Z,11.23
2022-11-18T08:07:23.732Z,9.77
2022-11-18T08:09:52.489Z,10.98
2022-11-18T08:12:25.561Z,11.05
2022-11-18T08:14:54.020Z,10.45
2022-11-18T08:17:22.435Z,11.02
2022-11-18T08:19:50.936Z,10.23
2022-11-18T08:22:21.020Z,10.68
2022-11-18T08:24:52.859Z,11.00
2022-11-18T08:27:21.561Z,11.45
2022-11-18T08:29:49.886Z,10.32
2022-11-18T08:32:18.256Z,11.07
2022-11-18T08:34:46.946Z,10.23
2022-11-18T08:37:17.945Z,9.80
2022-11-18T08:39:47.665Z,9.93
2022-11-18T08:42:16.173Z,9.85
2022-11-18T08:44:44.614Z,9.77
2022-11-18T08:47:13.126Z,9.18
2022-11-18T08:49:45.260Z,9.20
2022-11-18T08:52:13.667Z,8.15
2022-11-18T08:54:49.793Z,8.55
2022-11-18T08:57:22.786Z,8.10
2022-11-18T08:59:54.922Z,7.47
2022-11-18T09:02:25.117Z,7.65
2022-11-18T09:04:54.863Z,8.57
2022-11-18T09:07:32.916Z,8.32
2022-11-18T09:10:01.290Z,7.93
2022-11-18T09:12:31.209Z,8.75
2022-11-18T09:15:13.555Z,8.05
2022-11-18T09:17:43.092Z,8.07
2022-11-18T09:20:12.033Z,7.90
2022-11-18T09:22:40.460Z,8.00
2022-11-18T09:25:10.165Z,8.70
2022-11-18T09:27:40.020Z,8.48
2022-11-18T09:30:10.110Z,8.20
2022-11-18T09:32:41.863Z,8.95
2022-11-18T09:35:10.273Z,8.23
2022-11-18T09:37:38.817Z,8.10
2022-11-18T09:40:23.640Z,8.63
2022-11-18T09:43:04.974Z,7.45
2022-11-18T09:45:46.570Z,7.03
2022-11-18T09:48:21.057Z,7.10
2022-11-18T09:50:50.817Z,6.65
2022-11-18T09:53:28.176Z,6.93
2022-11-18T09:55:58.870Z,7.30
2022-11-18T09:58:35.291Z,6.63
2022-11-18T10:01:04.787Z,7.40
2022-11-18T10:03:34.596Z,6.72
2022-11-18T10:06:15.293Z,6.70
2022-11-18T10:09:05.689Z,7.05
2022-11-18T10:11:43.372Z,8.18
2022-11-18T10:14:29.676Z,7.20
2022-11-18T10:17:08.341Z,8.10
2022-11-18T10:19:44.341Z,6.70
2022-11-18T10:22:24.651Z,7.20
2022-11-18T10:24:55.863Z,6.13
2022-11-18T10:27:34.659Z,7.10
2022-11-18T10:30:12.873Z,6.45
2022-11-18T10:32:56.232Z,6.50
2022-11-18T10:35:29.340Z,7.20
2022-11-18T10:38:08.813Z,6.40
2022-11-18T10:40:45.251Z,6.78
2022-11-18T10:43:14.878Z,7.20
2022-11-18T10:45:47.211Z,6.20
2022-11-18T10:48:19.636Z,6.60
2022-11-18T10:50:55.236Z,6.65
2022-11-18T10:53:32.734Z,7.10
2022-11-18T10:56:02.710Z,6.95
2022-11-18T10:58:45.211Z,5.47
2022-11-18T11:01:25.924Z,6.38
2022-11-18T11:04:12.315Z,6.30
2022-11-18T11:06:41.039Z,6.68
2022-11-18T11:09:28.619Z,5.00
2022-11-18T11:12:00.225Z,5.20
2022-11-18T11:14:55.199Z,5.80
2022-11-18T11:18:13.246Z,5.22
2022-11-18T11:20:45.641Z,5.75
2022-11-18T11:23:22.092Z,6.72
2022-11-18T11:28:55.073Z,6.18
2022-11-18T11:31:32.456Z,6.45
2022-11-18T11:34:06.686Z,5.50
2022-11-18T11:36:48.776Z,6.80
2022-11-18T11:39:54.644Z,6.07
2022-11-18T11:42:42.522Z,5.28
2022-11-18T11:45:24.115Z,5.07
2022-11-18T11:48:41.442Z,5.65
2022-11-18T11:51:21.118Z,6.07
2022-11-18T11:54:23.959Z,6.32
2022-11-18T11:56:59.073Z,5.75
2022-11-18T11:59:38.004Z,5.72
2022-11-18T12:02:27.039Z,6.45
2022-11-18T12:05:03.668Z,5.63
2022-11-18T12:07:41.458Z,6.10
2022-11-18T12:10:32.921Z,7.25
2022-11-18T12:13:22.749Z,7.13
2022-11-18T12:16:03.448Z,7.80
2022-11-18T12:18:42.050Z,8.32
2022-11-18T12:21:52.708Z,9.02
2022-11-18T12:24:34.558Z,8.52
2022-11-18T12:27:57.614Z,9.90
2022-11-18T12:30:29.703Z,8.73
2022-11-18T12:33:44.048Z,9.40
2022-11-18T12:36:26.326Z,9.73
2022-11-18T12:38:55.011Z,8.45
2022-11-18T12:42:13.960Z,8.38
2022-11-18T12:44:45.565Z,9.70
2022-11-18T12:47:16.840Z,9.60
2022-11-18T12:50:43.313Z,9.48
2022-11-18T12:53:47.572Z,8.60
2022-11-18T12:56:31.115Z,7.63
2022-11-18T12:59:01.659Z,8.40
2022-11-18T13:01:34.619Z,6.00
2022-11-18T13:04:11.202Z,7.10
2022-11-18T13:06:40.992Z,6.63
2022-11-18T13:09:17.795Z,7.15
2022-11-18T13:11:52.048Z,8.20
2022-11-18T13:14:46.713Z,8.65
2022-11-18T13:17:50.672Z,7.75
2022-11-18T13:20:31.232Z,7.00
2022-11-18T13:26:13.679Z,8.60
2022-11-18T13:29:03.026Z,8.43
2022-11-18T13:31:36.849Z,7.70
2022-11-18T13:34:20.868Z,7.63
2022-11-18T13:37:16.182Z,8.32
2022-11-18T13:39:53.600Z,8.30
2022-11-18T13:42:47.235Z,7.85
2022-11-18T13:45:17.071Z,7.25
2022-11-18T13:47:48.569Z,7.43
2022-11-18T13:50:25.104Z,6.88
2022-11-18T13:53:04.797Z,7.85
2022-11-18T13:55:39.667Z,8.07
2022-11-18T13:58:33.961Z,7.97
2022-11-18T14:01:21.006Z,7.03
2022-11-18T14:04:02.245Z,7.22
2022-11-18T14:06:40.507Z,8.88
2022-11-18T14:09:29.623Z,8.50
2022-11-18T14:15:32.590Z,6.97
2022-11-18T14:18:18.293Z,8.40
2022-11-18T14:20:52.903Z,9.40
2022-11-18T14:23:31.521Z,11.75
2022-11-18T14:26:30.027Z,9.85
2022-11-18T14:29:00.557Z,11.35
2022-11-18T14:31:37.014Z,10.43
2022-11-18T14:34:32.772Z,10.02
2022-11-18T14:37:01.830Z,10.00
2022-11-18T14:39:35.603Z,9.80
2022-11-18T14:42:15.173Z,9.85
2022-11-18T14:44:55.983Z,10.27
2022-11-18T14:47:30.271Z,9.63
2022-11-18T14:50:18.815Z,9.80
2022-11-18T14:52:47.270Z,10.52
2022-11-18T14:55:15.808Z,10.13
2022-11-18T14:58:02.180Z,11.15
2022-11-18T15:00:32.757Z,11.02
2022-11-18T15:03:01.701Z,12.05
2022-11-18T15:05:47.307Z,11.95
2022-11-18T15:08:18.463Z,11.40
2022-11-18T15:10:47.313Z,9.65
2022-11-18T15:13:18.906Z,8.73
2022-11-18T15:15:49.256Z,10.05
2022-11-18T15:18:19.151Z,9.18
2022-11-18T15:20:47.707Z,10.77
2022-11-18T15:23:29.853Z,10.57
2022-11-18T15:25:58.672Z,9.43
2022-11-18T15:28:28.901Z,10.35
2022-11-18T15:31:08.440Z,9.13
2022-11-18T15:33:40.918Z,10.07
2022-11-18T15:36:37.219Z,9.20
2022-11-18T15:39:14.573Z,9.98
2022-11-18T15:41:46.627Z,10.05
2022-11-18T15:44:21.366Z,10.23
2022-11-18T15:47:09.262Z,10.02
2022-11-18T15:49:37.798Z,11.45
2022-11-18T15:52:15.969Z,11.07
2022-11-18T15:54:44.769Z,11.63
2022-11-18T15:57:13.268Z,10.20
2022-11-18T15:59:47.651Z,10.13
2022-11-18T16:02:18.536Z,11.02
2022-11-18T16:04:47.180Z,11.20
2022-11-18T16:07:15.763Z,10.80
2022-11-18T16:10:02.079Z,11.52
2022-11-18T16:12:48.523Z,10.40
2022-11-18T16:16:02.266Z,11.10
2022-11-18T16:18:40.774Z,11.20
2022-11-18T16:21:10.978Z,11.32
2022-11-18T16:23:39.696Z,11.10
2022-11-18T16:26:08.465Z,11.27
2022-11-18T16:28:40.683Z,12.75
2022-11-18T16:31:28.481Z,11.82
2022-11-18T16:33:57.949Z,12.63
2022-11-18T16:36:29.761Z,11.60
2022-11-18T16:38:58.210Z,12.75
2022-11-18T16:41:33.064Z,11.68
2022-11-18T16:44:03.544Z,11.77
2022-11-18T16:46:35.961Z,11.75
2022-11-18T16:49:05.132Z,11.95
2022-11-18T16:51:52.473Z,13.07
2022-11-18T16:54:23.023Z,11.05
2022-11-18T16:56:51.818Z,10.32
2022-11-18T16:59:21.943Z,11.07
2022-11-18T17:01:52.836Z,10.77
2022-11-18T17:04:23.386Z,11.40
2022-11-18T17:06:56.410Z,11.45
2022-11-18T17:09:25.765Z,13.25
2022-11-18T17:11:55.514Z,10.70
2022-11-18T17:14:24.492Z,11.30
2022-11-18T17:16:54.674Z,11.68
2022-11-18T17:19:24.989Z,12.18
2022-11-18T17:21:53.470Z,11.65
2022-11-18T17:24:24.752Z,11.50
2022-11-18T17:26:53.843Z,10.90
2022-11-18T17:29:22.554Z,11.88
2022-11-18T17:31:51.130Z,12.10
2022-11-18T17:34:21.388Z,12.82
2022-11-18T17:36:50.065Z,11.85
2022-11-18T17:39:20.829Z,10.82
2022-11-18T17:42:06.590Z,11.65
2022-11-18T17:44:35.075Z,12.52
2022-11-18T17:47:07.106Z,13.13
2022-11-18T17:49:37.057Z,13.40
2022-11-18T17:52:05.834Z,11.05
2022-11-18T17:54:44.343Z,10.13
2022-11-18T17:57:29.723Z,10.27
2022-11-18T18:00:07.453Z,10.73
2022-11-18T18:02:42.971Z,11.23
2022-11-18T18:05:13.277Z,11.52
2022-11-18T18:07:41.742Z,10.85
2022-11-18T18:10:10.913Z,12.00
2022-11-18T18:12:56.812Z,11.15
2022-11-18T18:15:28.468Z,11.43
2022-11-18T18:18:03.525Z,11.57
2022-11-18T18:20:34.408Z,10.10
2022-11-18T18:23:02.725Z,9.82
2022-11-18T18:25:31.203Z,11.13
2022-11-18T18:27:59.543Z,10.30
2022-11-18T18:30:28.077Z,11.70
2022-11-18T18:32:56.501Z,9.90
2022-11-18T18:35:24.882Z,10.52
2022-11-18T18:37:55.831Z,11.13
2022-11-18T18:40:24.248Z,10.35
2022-11-18T18:42:52.656Z,11.38
2022-11-18T18:45:40.413Z,12.25
2022-11-18T18:48:08.918Z,12.82
2022-11-18T18:50:37.310Z,11.55
2022-11-18T18:53:07.226Z,12.40
2022-11-18T18:55:39.233Z,13.65
2022-11-18T18:58:10.470Z,12.45
2022-11-18T19:00:38.860Z,11.68
2022-11-18T19:03:07.293Z,12.25
2022-11-18T19:06:08.540Z,11.52
2022-11-18T19:08:25.313Z,13.57
2022-11-18T19:10:53.622Z,13.35
2022-11-18T19:13:20.949Z,11.77
2022-11-18T19:15:49.353Z,11.55
2022-11-18T19:18:17.749Z,12.15
2022-11-18T19:20:46.314Z,12.68
2022-11-18T19:23:14.609Z,9.80
2022-11-18T19:25:46.147Z,10.90
2022-11-18T19:28:14.831Z,11.65
2022-11-18T19:30:43.471Z,10.48
2022-11-18T19:33:12.967Z,11.45
2022-11-18T19:35:44.112Z,12.10
2022-11-18T19:38:21.512Z,11.65
2022-11-18T19:40:51.380Z,12.55
2022-11-18T19:43:19.750Z,12.55
2022-11-18T19:45:52.181Z,12.68
2022-11-18T19:48:21.889Z,10.93
2022-11-18T19:50:50.316Z,11.55
2022-11-18T19:53:35.002Z,10.40
2022-11-18T19:56:20.552Z,12.73
2022-11-18T19:58:50.484Z,11.82
2022-11-18T20:01:22.875Z,10.32
2022-11-18T20:03:53.797Z,12.10
2022-11-18T20:06:24.335Z,11.60
2022-11-18T20:08:53.787Z,10.88
2022-11-18T20:11:25.539Z,12.65
2022-11-18T20:13:53.958Z,11.23
2022-11-18T20:16:23.657Z,11.88
2022-11-18T20:18:55.175Z,12.18
2022-11-18T20:21:24.542Z,13.30
2022-11-18T20:23:56.058Z,13.35
2022-11-18T20:26:28.036Z,10.85
2022-11-18T20:28:57.880Z,12.65
2022-11-18T20:31:28.131Z,11.25
2022-11-18T20:33:57.874Z,12.20
2022-11-18T20:36:28.275Z,11.25
2022-11-18T20:38:57.961Z,12.60
2022-11-18T20:41:30.454Z,11.50
2022-11-18T20:43:58.828Z,12.00
2022-11-18T20:46:27.787Z,10.85
2022-11-18T20:48:56.732Z,12.02
2022-11-18T20:51:29.270Z,11.40
2022-11-18T20:54:02.914Z,10.98
2022-11-18T20:56:33.728Z,10.90
2022-11-18T20:59:02.667Z,10.07
2022-11-18T21:01:33.268Z,11.10
2022-11-18T21:04:03.551Z,11.38
2022-11-18T21:06:33.687Z,13.63
2022-11-18T21:09:03.938Z,11.80
2022-11-18T21:11:35.866Z,12.30
2022-11-18T21:14:25.378Z,12.60
2022-11-18T21:16:55.702Z,12.15
2022-11-18T21:19:26.261Z,11.90
2022-11-18T21:21:54.249Z,11.43
2022-11-18T21:24:24.042Z,12.23
2022-11-18T21:26:55.255Z,12.38
2022-11-18T21:29:24.700Z,12.50
2022-11-18T21:31:54.373Z,13.50
2022-11-18T21:34:24.458Z,13.25
2022-11-18T21:36:54.946Z,13.65
2022-11-18T21:39:24.726Z,13.20
2022-11-18T21:42:03.919Z,13.80
2022-11-18T21:44:32.297Z,12.70
2022-11-18T21:47:00.699Z,13.77
2022-11-18T21:49:29.436Z,12.95
2022-11-18T21:51:57.745Z,13.77
2022-11-18T21:54:25.985Z,12.50
2022-11-18T21:56:55.745Z,12.60
2022-11-18T21:59:24.090Z,13.40
2022-11-18T22:01:52.414Z,11.77
2022-11-18T22:04:34.616Z,12.07
2022-11-18T22:07:03.211Z,12.80
2022-11-18T22:09:36.115Z,13.60
2022-11-18T22:12:07.830Z,11.55
2022-11-18T22:14:36.443Z,12.77
2022-11-18T22:17:05.985Z,11.70
2022-11-18T22:19:34.880Z,11.90
2022-11-18T22:22:03.390Z,12.68
2022-11-18T22:24:31.754Z,12.82
2022-11-18T22:27:00.042Z,14.30
2022-11-18T22:29:29.828Z,13.40
2022-11-18T22:31:58.151Z,14.25
2022-11-18T22:34:26.520Z,14.25
2022-11-18T22:36:54.908Z,14.57
2022-11-18T22:39:23.235Z,13.80
2022-11-18T22:42:08.661Z,13.82
2022-11-18T22:44:38.432Z,13.35
2022-11-18T22:47:06.804Z,13.57
2022-11-18T22:49:35.114Z,13.45
2022-11-18T22:52:03.719Z,14.65
2022-11-18T22:54:38.910Z,14.43
2022-11-18T22:57:08.039Z,14.65
2022-11-18T22:59:37.773Z,13.55
2022-11-18T23:02:08.283Z,14.48
2022-11-18T23:04:36.744Z,12.55
2022-11-18T23:07:05.326Z,13.35
2022-11-18T23:09:33.680Z,14.30
2022-11-18T23:12:30.766Z,13.00
2022-11-18T23:15:00.472Z,12.65
2022-11-18T23:17:28.770Z,13.75
2022-11-18T23:19:57.072Z,13.65
2022-11-18T23:22:25.361Z,13.63
2022-11-18T23:24:53.636Z,13.43
2022-11-18T23:27:21.914Z,13.30
2022-11-18T23:29:50.594Z,12.00
2022-11-18T23:32:20.237Z,13.15
2022-11-18T23:34:49.207Z,13.93
2022-11-18T23:37:17.458Z,14.15
2022-11-18T23:39:45.745Z,14.00
2022-11-18T23:42:13.993Z,13.88
2022-11-18T23:44:50.267Z,14.85
2022-11-18T23:47:20.190Z,14.20
2022-11-18T23:49:51.635Z,13.02
2022-11-18T23:52:20.006Z,14.43
2022-11-18T23:54:49.848Z,14.98
2022-11-18T23:57:18.167Z,13.45
2022-11-18T23:59:46.639Z,14.18
